Time;durP1;ratioP1;P1;durP2;ratioP2;P2;SDS_P1;SDS_P2;PMS_P1;PMS_P2;Temp;Humidity;BMP_temperature;BMP_pressure;BME280_temperature;BME280_humidity;BME280_pressure;Samples;Min_cycle;Max_cycle;Signal;HPM_P1;HPM_P2
2021/05/19 00:00:35;;;;;;;3.47;1.30;;;;;;;;;;6196109;23;20171;-90
2021/05/19 00:03:39;;;;;;;3.03;1.70;;;;;;;;;;6196645;23;20175;-90
2021/05/19 00:06:45;;;;;;;2.27;1.30;;;;;;;;;;6196424;23;20199;-90
2021/05/19 00:09:49;;;;;;;5.53;1.47;;;;;;;;;;6195418;23;20168;-90
2021/05/19 00:12:54;;;;;;;4.23;1.30;;;;;;;;;;6200084;23;20192;-93
2021/05/19 00:15:59;;;;;;;4.03;1.43;;;;;;;;;;6195238;23;20229;-92
2021/05/19 00:19:03;;;;;;;2.87;1.33;;;;;;;;;;6195805;23;20167;-90
2021/05/19 00:22:09;;;;;;;7.57;2.00;;;;;;;;;;6195049;23;20211;-91
2021/05/19 00:25:15;;;;;;;4.23;1.30;;;;;;;;;;6180972;23;20168;-91
2021/05/19 00:28:20;;;;;;;2.17;1.13;;;;;;;;;;6180310;23;20175;-90
2021/05/19 00:31:26;;;;;;;2.47;1.27;;;;;;;;;;6180974;23;20195;-92
2021/05/19 00:34:31;;;;;;;2.60;1.20;;;;;;;;;;6180041;23;20172;-92
2021/05/19 00:37:37;;;;;;;8.37;1.37;;;;;;;;;;6180863;23;20196;-94
2021/05/19 00:40:42;;;;;;;4.10;1.57;;;;;;;;;;6179476;23;20216;-94
2021/05/19 00:43:47;;;;;;;10.43;1.40;;;;;;;;;;6179653;23;20199;-92
2021/05/19 00:46:52;;;;;;;3.47;1.70;;;;;;;;;;6178139;23;20168;-92
2021/05/19 00:49:57;;;;;;;3.30;1.53;;;;;;;;;;6179322;23;20159;-93
2021/05/19 00:53:02;;;;;;;5.33;1.70;;;;;;;;;;6181402;23;20244;-93
2021/05/19 00:56:07;;;;;;;3.37;1.87;;;;;;;;;;6180452;23;20499;-90
2021/05/19 00:59:12;;;;;;;4.07;2.33;;;;;;;;;;6180786;23;20208;-92
2021/05/19 01:02:18;;;;;;;4.67;2.03;;;;;;;;;;6182453;23;20155;-92
2021/05/19 01:05:28;;;;;;;7.50;2.80;;;;;;;;;;6180480;23;20217;-92
2021/05/19 01:12:04;;;;;;;7.90;2.80;;;;;;;;;;6180350;23;20190;-92
2021/05/19 01:15:11;;;;;;;9.23;2.93;;;;;;;;;;6178889;23;20237;-92
2021/05/19 01:18:16;;;;;;;5.07;2.80;;;;;;;;;;6180712;23;20212;-90
2021/05/19 01:21:21;;;;;;;5.13;2.30;;;;;;;;;;6181763;23;20184;-93
2021/05/19 01:24:26;;;;;;;5.63;2.57;;;;;;;;;;6180366;23;20167;-89
2021/05/19 01:27:31;;;;;;;5.23;2.20;;;;;;;;;;6180902;23;20172;-93
2021/05/19 01:30:37;;;;;;;3.60;2.30;;;;;;;;;;6179222;23;20190;-91
2021/05/19 01:33:42;;;;;;;8.33;3.10;;;;;;;;;;6178836;23;20163;-90
2021/05/19 01:36:47;;;;;;;5.00;2.70;;;;;;;;;;6179498;23;20156;-90
2021/05/19 01:39:53;;;;;;;6.27;2.77;;;;;;;;;;6178068;23;20229;-90
2021/05/19 01:42:57;;;;;;;7.53;2.70;;;;;;;;;;6177638;23;20167;-93
2021/05/19 01:46:28;;;;;;;6.57;2.80;;;;;;;;;;6197247;23;20203;-93
2021/05/19 01:49:34;;;;;;;8.57;3.40;;;;;;;;;;6179063;23;20172;-92
2021/05/19 01:52:39;;;;;;;11.50;3.17;;;;;;;;;;6179602;23;20168;-93
2021/05/19 01:55:44;;;;;;;8.00;3.33;;;;;;;;;;6178580;23;20172;-92
2021/05/19 01:58:52;;;;;;;10.63;3.03;;;;;;;;;;6180648;23;20167;-92
2021/05/19 02:01:57;;;;;;;5.03;2.50;;;;;;;;;;6182017;23;20219;-93
2021/05/19 02:05:04;;;;;;;6.80;2.67;;;;;;;;;;6180943;23;20171;-92
2021/05/19 02:08:09;;;;;;;5.53;2.83;;;;;;;;;;6181134;23;20195;-92
2021/05/19 02:11:22;;;;;;;5.50;2.20;;;;;;;;;;6180017;23;20192;-93
2021/05/19 02:14:29;;;;;;;6.60;2.50;;;;;;;;;;6181030;23;20171;-93
2021/05/19 02:17:34;;;;;;;3.67;2.50;;;;;;;;;;6180126;23;20204;-92
2021/05/19 02:20:39;;;;;;;6.70;2.50;;;;;;;;;;6180249;23;20168;-93
2021/05/19 02:23:44;;;;;;;5.40;2.77;;;;;;;;;;6192818;23;20202;-92
2021/05/19 02:26:50;;;;;;;4.97;2.60;;;;;;;;;;6197380;23;20179;-92
2021/05/19 02:29:58;;;;;;;5.37;2.30;;;;;;;;;;6196997;23;20447;-93
2021/05/19 02:33:08;;;;;;;5.03;2.23;;;;;;;;;;6196198;23;20176;-93
2021/05/19 02:36:13;;;;;;;4.87;2.40;;;;;;;;;;6196033;23;20261;-91
2021/05/19 02:39:18;;;;;;;4.47;2.60;;;;;;;;;;6196658;23;20168;-93
2021/05/19 02:42:27;;;;;;;5.70;2.83;;;;;;;;;;6198548;23;20188;-92
2021/05/19 02:45:32;;;;;;;4.30;2.30;;;;;;;;;;6197484;23;20191;-93
2021/05/19 02:48:37;;;;;;;6.40;2.53;;;;;;;;;;6197349;23;20180;-93
2021/05/19 02:51:42;;;;;;;5.83;2.70;;;;;;;;;;6195774;23;20175;-92
2021/05/19 02:54:46;;;;;;;8.10;3.07;;;;;;;;;;6198557;23;20151;-92
2021/05/19 02:57:52;;;;;;;8.87;3.17;;;;;;;;;;6197369;23;20168;-92
2021/05/19 03:00:56;;;;;;;7.47;2.73;;;;;;;;;;6198207;23;20173;-92
2021/05/19 03:04:01;;;;;;;3.37;2.37;;;;;;;;;;6196353;23;20187;-94
2021/05/19 03:07:06;;;;;;;6.20;2.77;;;;;;;;;;6196782;23;20176;-93
2021/05/19 03:10:11;;;;;;;6.33;2.93;;;;;;;;;;6198263;23;20216;-93
2021/05/19 03:13:16;;;;;;;10.03;2.57;;;;;;;;;;6199001;23;20254;-92
2021/05/19 03:16:21;;;;;;;7.43;2.60;;;;;;;;;;6197734;23;20199;-93
2021/05/19 03:19:25;;;;;;;10.13;2.67;;;;;;;;;;6197114;23;20168;-93
2021/05/19 03:22:30;;;;;;;8.63;2.90;;;;;;;;;;6196688;23;20246;-93
2021/05/19 03:25:35;;;;;;;7.83;2.90;;;;;;;;;;6180648;23;20216;-92
2021/05/19 03:28:41;;;;;;;5.00;2.60;;;;;;;;;;6180649;23;20634;-92
2021/05/19 03:31:45;;;;;;;7.80;2.60;;;;;;;;;;6179719;23;20274;-92
2021/05/19 03:34:50;;;;;;;5.63;2.73;;;;;;;;;;6180571;23;20231;-91
2021/05/19 03:37:55;;;;;;;4.63;2.30;;;;;;;;;;6180820;23;20496;-92
2021/05/19 03:41:00;;;;;;;6.57;2.87;;;;;;;;;;6180144;23;20191;-93
2021/05/19 03:44:06;;;;;;;7.13;2.63;;;;;;;;;;6179149;23;20167;-93
2021/05/19 03:47:10;;;;;;;5.20;3.07;;;;;;;;;;6183433;23;20168;-92
2021/05/19 03:50:15;;;;;;;4.63;2.10;;;;;;;;;;6178031;23;20623;-93
2021/05/19 03:53:20;;;;;;;7.93;2.70;;;;;;;;;;6179975;23;20228;-92
2021/05/19 03:56:24;;;;;;;3.70;2.63;;;;;;;;;;6178185;23;20241;-92
2021/05/19 03:59:30;;;;;;;6.73;2.60;;;;;;;;;;6179203;23;20229;-91
2021/05/19 04:06:29;;;;;;;4.57;2.20;;;;;;;;;;6181206;23;20164;-92
2021/05/19 04:09:34;;;;;;;4.53;2.10;;;;;;;;;;6178640;23;20196;-93
2021/05/19 04:12:38;;;;;;;4.10;1.93;;;;;;;;;;6180067;23;20233;-93
2021/05/19 04:15:43;;;;;;;8.47;2.10;;;;;;;;;;6178199;23;20171;-93
2021/05/19 04:18:48;;;;;;;3.75;1.98;;;;;;;;;;6186462;23;20198;-94
2021/05/19 04:21:53;;;;;;;6.43;2.20;;;;;;;;;;6187170;23;20219;-93
2021/05/19 04:24:57;;;;;;;6.03;1.92;;;;;;;;;;6179743;23;20214;-94
2021/05/19 04:28:02;;;;;;;8.45;2.30;;;;;;;;;;6181686;23;20218;-90
2021/05/19 04:31:08;;;;;;;7.97;2.23;;;;;;;;;;6181256;23;20199;-90
2021/05/19 04:34:12;;;;;;;5.57;2.05;;;;;;;;;;6181942;23;20280;-91
2021/05/19 04:37:17;;;;;;;6.50;2.50;;;;;;;;;;6183910;23;20167;-90
2021/05/19 04:40:22;;;;;;;4.60;2.25;;;;;;;;;;6181220;23;20151;-93
2021/05/19 04:43:27;;;;;;;3.45;1.70;;;;;;;;;;6179473;23;20172;-92
2021/05/19 04:46:34;;;;;;;5.00;2.20;;;;;;;;;;6180538;23;20156;-91
2021/05/19 04:49:39;;;;;;;9.32;2.22;;;;;;;;;;6180867;23;20261;-92
2021/05/19 04:52:44;;;;;;;6.05;2.08;;;;;;;;;;6180385;23;20219;-92
2021/05/19 04:55:48;;;;;;;6.68;2.38;;;;;;;;;;6180354;23;20214;-93
2021/05/19 04:58:53;;;;;;;16.13;2.35;;;;;;;;;;6187432;23;20217;-92
2021/05/19 05:02:00;;;;;;;2.97;2.03;;;;;;;;;;6185772;23;20179;-93
2021/05/19 05:05:10;;;;;;;10.35;2.42;;;;;;;;;;6179060;23;20168;-93
2021/05/19 05:08:14;;;;;;;7.15;2.45;;;;;;;;;;6181350;23;20163;-91
2021/05/19 05:11:19;;;;;;;4.45;2.35;;;;;;;;;;6181999;23;20203;-92
2021/05/19 05:14:24;;;;;;;5.82;2.10;;;;;;;;;;6184696;23;20187;-91
2021/05/19 05:17:31;;;;;;;4.57;2.10;;;;;;;;;;6186531;23;20199;-92
2021/05/19 05:20:37;;;;;;;3.72;2.28;;;;;;;;;;6182232;23;20172;-92
2021/05/19 05:23:42;;;;;;;5.63;2.50;;;;;;;;;;6197666;23;20264;-92
2021/05/19 05:26:49;;;;;;;5.53;2.30;;;;;;;;;;6200048;23;20571;-92
2021/05/19 05:30:27;;;;;;;4.85;2.40;;;;;;;;;;6201602;23;20303;-92
2021/05/19 05:33:33;;;;;;;7.50;2.72;;;;;;;;;;6198959;23;20164;-92
2021/05/19 05:36:39;;;;;;;9.10;2.53;;;;;;;;;;6207967;23;20148;-91
2021/05/19 09:46:16;;;;;;;4.78;3.40;;;;;;;;;;6193449;23;20204;-90
2021/05/19 18:16:23;;;;;;;2.55;1.40;;;;;;;;;;6128792;23;20200;-89
2021/05/19 18:19:28;;;;;;;2.47;1.75;;;;;;;;;;6157306;23;20172;-90
2021/05/19 18:22:50;;;;;;;3.42;1.90;;;;;;;;;;6156263;23;20195;-91
2021/05/19 18:25:55;;;;;;;4.72;1.88;;;;;;;;;;6157267;23;20188;-92
2021/05/19 18:29:05;;;;;;;8.07;2.10;;;;;;;;;;6156838;23;20173;-90
2021/05/19 18:32:17;;;;;;;3.78;2.03;;;;;;;;;;6157649;23;20292;-91
2021/05/19 18:35:23;;;;;;;5.30;2.40;;;;;;;;;;6155304;23;20200;-90
2021/05/19 18:38:29;;;;;;;4.75;2.20;;;;;;;;;;6157609;23;20216;-91
2021/05/19 18:41:34;;;;;;;3.25;2.10;;;;;;;;;;6156375;23;20189;-91
2021/05/19 18:44:39;;;;;;;4.70;2.20;;;;;;;;;;6153980;23;20284;-91
2021/05/19 18:47:45;;;;;;;4.07;2.53;;;;;;;;;;6155277;23;20168;-91
2021/05/19 18:50:51;;;;;;;4.32;2.50;;;;;;;;;;6159618;23;20235;-91
2021/05/19 18:54:00;;;;;;;5.07;3.30;;;;;;;;;;6163433;23;20218;-91
2021/05/19 22:02:22;;;;;;;6.00;2.33;;;;;;;;;;6174168;23;20217;-92
2021/05/19 22:05:27;;;;;;;4.00;2.00;;;;;;;;;;6194323;23;20546;-91
2021/05/19 22:08:32;;;;;;;2.97;2.23;;;;;;;;;;6196353;23;20195;-91
2021/05/19 22:11:37;;;;;;;3.92;2.10;;;;;;;;;;6179252;23;20194;-91
2021/05/19 22:14:42;;;;;;;3.70;2.05;;;;;;;;;;6195576;23;20188;-92
2021/05/19 22:17:49;;;;;;;3.95;2.35;;;;;;;;;;6196427;23;20194;-92
2021/05/19 22:24:47;;;;;;;5.57;2.70;;;;;;;;;;6179105;23;20199;-90
2021/05/19 22:27:52;;;;;;;4.40;2.60;;;;;;;;;;6196148;23;20179;-91
2021/05/19 22:30:58;;;;;;;8.83;2.27;;;;;;;;;;6179291;23;20176;-92
2021/05/19 22:34:03;;;;;;;3.97;2.17;;;;;;;;;;6198229;23;20179;-92
2021/05/19 22:37:09;;;;;;;8.50;2.70;;;;;;;;;;6197346;23;20175;-92
2021/05/19 22:40:15;;;;;;;3.97;2.43;;;;;;;;;;6197142;23;20180;-92
2021/05/19 22:43:19;;;;;;;3.83;2.50;;;;;;;;;;6198338;23;20191;-91
2021/05/19 22:46:24;;;;;;;4.07;2.30;;;;;;;;;;6179547;23;20172;-91
2021/05/19 22:49:30;;;;;;;6.80;2.47;;;;;;;;;;6196690;23;20233;-91
2021/05/19 22:52:35;;;;;;;4.57;2.90;;;;;;;;;;6195067;23;20238;-90
2021/05/19 22:55:40;;;;;;;7.80;2.30;;;;;;;;;;6195047;23;20196;-91
2021/05/19 22:58:44;;;;;;;4.70;2.50;;;;;;;;;;6194621;23;20152;-91
2021/05/19 23:01:49;;;;;;;3.88;2.45;;;;;;;;;;6201780;23;20203;-90
2021/05/19 23:04:54;;;;;;;3.17;2.40;;;;;;;;;;6194632;23;20503;-91
2021/05/19 23:08:00;;;;;;;3.73;2.30;;;;;;;;;;6197653;23;20172;-93
2021/05/19 23:11:05;;;;;;;4.70;1.90;;;;;;;;;;6213787;23;20168;-90
2021/05/19 23:14:09;;;;;;;4.00;2.40;;;;;;;;;;6196547;23;20171;-92
2021/05/19 23:17:14;;;;;;;6.37;2.97;;;;;;;;;;6195407;23;20563;-92
2021/05/19 23:20:21;;;;;;;8.17;3.83;;;;;;;;;;6193941;23;20171;-91
2021/05/19 23:23:29;;;;;;;5.13;2.97;;;;;;;;;;6194992;23;20155;-91
2021/05/19 23:26:35;;;;;;;5.80;3.10;;;;;;;;;;6194121;23;20192;-91
2021/05/19 23:29:42;;;;;;;6.50;2.90;;;;;;;;;;6194799;23;20179;-92
2021/05/19 23:32:47;;;;;;;7.13;3.93;;;;;;;;;;6212341;22;20231;-93
2021/05/19 23:35:51;;;;;;;4.35;2.92;;;;;;;;;;6195480;23;20223;-92
2021/05/19 23:38:56;;;;;;;3.83;2.67;;;;;;;;;;6195663;23;20168;-92
2021/05/19 23:42:01;;;;;;;8.27;2.97;;;;;;;;;;6196511;23;20160;-91
2021/05/19 23:45:07;;;;;;;5.13;2.88;;;;;;;;;;6194082;23;20171;-91
2021/05/19 23:48:12;;;;;;;6.03;2.75;;;;;;;;;;6195564;23;20289;-91
2021/05/19 23:51:17;;;;;;;4.80;3.13;;;;;;;;;;6194454;23;20175;-92
2021/05/19 23:54:24;;;;;;;6.13;3.72;;;;;;;;;;6194313;23;20199;-91
2021/05/19 23:57:29;;;;;;;3.45;2.80;;;;;;;;;;6193641;23;20184;-91
